sensor_id;sensor_type;location;lat;lon;timestamp;P1;durP1;ratioP1;P2;durP2;ratioP2
23121;SDS011;11730;51.248;22.534;2023-03-19T00:00:38;23.45;;;14.85;;
23121;SDS011;11730;51.248;22.534;2023-03-19T00:03:06;18.33;;;9.57;;
23121;SDS011;11730;51.248;22.534;2023-03-19T00:05:33;21.48;;;10.10;;
23121;SDS011;11730;51.248;22.534;2023-03-19T00:08:01;17.23;;;8.73;;
23121;SDS011;11730;51.248;22.534;2023-03-19T00:10:28;17.77;;;9.18;;
23121;SDS011;11730;51.248;22.534;2023-03-19T00:12:55;17.80;;;9.95;;
23121;SDS011;11730;51.248;22.534;2023-03-19T00:15:23;22.88;;;10.13;;
23121;SDS011;11730;51.248;22.534;2023-03-19T00:17:50;17.48;;;9.10;;
23121;SDS011;11730;51.248;22.534;2023-03-19T00:20:17;21.80;;;10.13;;
23121;SDS011;11730;51.248;22.534;2023-03-19T00:22:45;15.77;;;9.13;;
23121;SDS011;11730;51.248;22.534;2023-03-19T00:25:12;17.67;;;9.98;;
23121;SDS011;11730;51.248;22.534;2023-03-19T00:27:40;20.92;;;9.77;;
23121;SDS011;11730;51.248;22.534;2023-03-19T00:30:08;16.92;;;9.30;;
23121;SDS011;11730;51.248;22.534;2023-03-19T00:32:36;17.70;;;10.00;;
23121;SDS011;11730;51.248;22.534;2023-03-19T00:35:04;19.88;;;10.85;;
23121;SDS011;11730;51.248;22.534;2023-03-19T00:37:32;14.27;;;6.53;;
23121;SDS011;11730;51.248;22.534;2023-03-19T00:40:00;15.85;;;9.43;;
23121;SDS011;11730;51.248;22.534;2023-03-19T00:42:27;15.82;;;9.50;;
23121;SDS011;11730;51.248;22.534;2023-03-19T00:44:54;20.10;;;10.95;;
23121;SDS011;11730;51.248;22.534;2023-03-19T00:47:22;18.60;;;10.07;;
23121;SDS011;11730;51.248;22.534;2023-03-19T00:49:49;19.85;;;11.25;;
23121;SDS011;11730;51.248;22.534;2023-03-19T00:52:17;20.00;;;11.00;;
23121;SDS011;11730;51.248;22.534;2023-03-19T00:54:44;21.63;;;10.18;;
23121;SDS011;11730;51.248;22.534;2023-03-19T00:57:12;22.73;;;11.57;;
23121;SDS011;11730;51.248;22.534;2023-03-19T00:59:39;22.48;;;12.27;;
23121;SDS011;11730;51.248;22.534;2023-03-19T01:02:06;19.48;;;10.93;;
23121;SDS011;11730;51.248;22.534;2023-03-19T01:04:34;24.98;;;11.63;;
23121;SDS011;11730;51.248;22.534;2023-03-19T01:07:01;23.02;;;11.35;;
23121;SDS011;11730;51.248;22.534;2023-03-19T01:09:28;19.20;;;9.93;;
23121;SDS011;11730;51.248;22.534;2023-03-19T01:11:56;20.88;;;10.90;;
23121;SDS011;11730;51.248;22.534;2023-03-19T01:14:24;22.73;;;11.45;;
23121;SDS011;11730;51.248;22.534;2023-03-19T01:16:51;22.25;;;11.35;;
23121;SDS011;11730;51.248;22.534;2023-03-19T01:19:18;23.52;;;10.90;;
23121;SDS011;11730;51.248;22.534;2023-03-19T01:21:46;23.25;;;12.60;;
23121;SDS011;11730;51.248;22.534;2023-03-19T01:24:15;19.67;;;10.93;;
23121;SDS011;11730;51.248;22.534;2023-03-19T01:26:42;21.60;;;11.85;;
23121;SDS011;11730;51.248;22.534;2023-03-19T01:29:09;20.33;;;10.80;;
23121;SDS011;11730;51.248;22.534;2023-03-19T01:31:37;23.90;;;10.88;;
23121;SDS011;11730;51.248;22.534;2023-03-19T01:34:04;23.73;;;12.45;;
23121;SDS011;11730;51.248;22.534;2023-03-19T01:36:32;24.05;;;12.82;;
23121;SDS011;11730;51.248;22.534;2023-03-19T01:38:59;25.77;;;12.30;;
23121;SDS011;11730;51.248;22.534;2023-03-19T01:41:26;20.50;;;11.73;;
23121;SDS011;11730;51.248;22.534;2023-03-19T01:43:54;21.50;;;11.88;;
23121;SDS011;11730;51.248;22.534;2023-03-19T01:46:25;23.00;;;11.80;;
23121;SDS011;11730;51.248;22.534;2023-03-19T01:48:55;21.85;;;11.93;;
23121;SDS011;11730;51.248;22.534;2023-03-19T01:51:25;25.17;;;12.30;;
23121;SDS011;11730;51.248;22.534;2023-03-19T01:54:02;21.48;;;10.45;;
23121;SDS011;11730;51.248;22.534;2023-03-19T01:56:34;25.13;;;12.52;;
23121;SDS011;11730;51.248;22.534;2023-03-19T01:59:06;25.97;;;12.10;;
23121;SDS011;11730;51.248;22.534;2023-03-19T02:01:35;21.98;;;12.15;;
23121;SDS011;11730;51.248;22.534;2023-03-19T02:04:06;25.30;;;11.35;;
23121;SDS011;11730;51.248;22.534;2023-03-19T02:06:34;24.33;;;13.05;;
23121;SDS011;11730;51.248;22.534;2023-03-19T02:09:02;20.60;;;11.10;;
23121;SDS011;11730;51.248;22.534;2023-03-19T02:11:30;20.42;;;11.30;;
23121;SDS011;11730;51.248;22.534;2023-03-19T02:13:57;26.02;;;11.85;;
23121;SDS011;11730;51.248;22.534;2023-03-19T02:16:24;22.13;;;11.85;;
23121;SDS011;11730;51.248;22.534;2023-03-19T02:18:52;25.10;;;12.50;;
23121;SDS011;11730;51.248;22.534;2023-03-19T02:21:19;21.88;;;11.88;;
23121;SDS011;11730;51.248;22.534;2023-03-19T02:28:59;25.08;;;12.30;;
23121;SDS011;11730;51.248;22.534;2023-03-19T02:31:27;25.20;;;12.10;;
23121;SDS011;11730;51.248;22.534;2023-03-19T02:34:05;20.75;;;11.00;;
23121;SDS011;11730;51.248;22.534;2023-03-19T02:37:12;23.63;;;11.82;;
23121;SDS011;11730;51.248;22.534;2023-03-19T02:39:47;23.10;;;12.00;;
23121;SDS011;11730;51.248;22.534;2023-03-19T02:42:30;21.63;;;11.50;;
23121;SDS011;11730;51.248;22.534;2023-03-19T02:44:57;23.10;;;12.15;;
23121;SDS011;11730;51.248;22.534;2023-03-19T02:47:25;21.30;;;12.20;;
23121;SDS011;11730;51.248;22.534;2023-03-19T02:49:53;21.85;;;11.25;;
23121;SDS011;11730;51.248;22.534;2023-03-19T02:52:20;23.23;;;11.50;;
23121;SDS011;11730;51.248;22.534;2023-03-19T02:54:48;19.63;;;11.63;;
23121;SDS011;11730;51.248;22.534;2023-03-19T02:57:15;22.23;;;12.07;;
23121;SDS011;11730;51.248;22.534;2023-03-19T02:59:42;20.58;;;12.40;;
23121;SDS011;11730;51.248;22.534;2023-03-19T03:02:09;21.52;;;11.55;;
23121;SDS011;11730;51.248;22.534;2023-03-19T03:04:37;22.67;;;11.73;;
23121;SDS011;11730;51.248;22.534;2023-03-19T03:07:04;19.27;;;10.88;;
23121;SDS011;11730;51.248;22.534;2023-03-19T03:09:32;21.42;;;12.27;;
23121;SDS011;11730;51.248;22.534;2023-03-19T03:12:00;24.40;;;12.23;;
23121;SDS011;11730;51.248;22.534;2023-03-19T03:14:27;20.35;;;11.50;;
23121;SDS011;11730;51.248;22.534;2023-03-19T03:16:54;22.77;;;12.38;;
23121;SDS011;11730;51.248;22.534;2023-03-19T03:19:22;23.50;;;12.63;;
23121;SDS011;11730;51.248;22.534;2023-03-19T03:21:49;24.65;;;13.05;;
23121;SDS011;11730;51.248;22.534;2023-03-19T03:24:17;23.48;;;12.02;;
23121;SDS011;11730;51.248;22.534;2023-03-19T03:26:44;24.35;;;13.70;;
23121;SDS011;11730;51.248;22.534;2023-03-19T03:29:11;22.70;;;13.32;;
23121;SDS011;11730;51.248;22.534;2023-03-19T03:31:39;21.02;;;12.05;;
23121;SDS011;11730;51.248;22.534;2023-03-19T03:34:06;25.02;;;14.48;;
23121;SDS011;11730;51.248;22.534;2023-03-19T03:36:34;25.38;;;13.27;;
23121;SDS011;11730;51.248;22.534;2023-03-19T03:39:02;23.33;;;12.95;;
23121;SDS011;11730;51.248;22.534;2023-03-19T03:41:29;23.60;;;13.32;;
23121;SDS011;11730;51.248;22.534;2023-03-19T03:43:57;25.23;;;12.80;;
23121;SDS011;11730;51.248;22.534;2023-03-19T03:46:23;22.48;;;13.43;;
23121;SDS011;11730;51.248;22.534;2023-03-19T03:48:51;24.50;;;13.23;;
23121;SDS011;11730;51.248;22.534;2023-03-19T03:51:18;23.73;;;12.52;;
23121;SDS011;11730;51.248;22.534;2023-03-19T03:53:45;25.67;;;14.48;;
23121;SDS011;11730;51.248;22.534;2023-03-19T03:56:13;25.50;;;13.30;;
23121;SDS011;11730;51.248;22.534;2023-03-19T03:58:40;25.40;;;13.10;;
23121;SDS011;11730;51.248;22.534;2023-03-19T04:01:08;24.05;;;13.20;;
23121;SDS011;11730;51.248;22.534;2023-03-19T04:03:39;26.00;;;13.27;;
23121;SDS011;11730;51.248;22.534;2023-03-19T04:06:08;22.33;;;13.02;;
23121;SDS011;11730;51.248;22.534;2023-03-19T04:08:39;28.13;;;13.70;;
23121;SDS011;11730;51.248;22.534;2023-03-19T04:11:06;28.38;;;12.82;;
23121;SDS011;11730;51.248;22.534;2023-03-19T04:13:34;23.00;;;12.95;;
23121;SDS011;11730;51.248;22.534;2023-03-19T04:16:05;23.33;;;12.27;;
23121;SDS011;11730;51.248;22.534;2023-03-19T04:18:34;19.88;;;11.65;;
23121;SDS011;11730;51.248;22.534;2023-03-19T04:21:02;25.05;;;11.18;;
23121;SDS011;11730;51.248;22.534;2023-03-19T04:23:30;22.30;;;11.38;;
23121;SDS011;11730;51.248;22.534;2023-03-19T04:26:00;21.98;;;11.20;;
23121;SDS011;11730;51.248;22.534;2023-03-19T04:28:28;17.30;;;11.02;;
23121;SDS011;11730;51.248;22.534;2023-03-19T04:31:03;18.20;;;11.73;;
23121;SDS011;11730;51.248;22.534;2023-03-19T04:33:31;22.80;;;11.52;;
23121;SDS011;11730;51.248;22.534;2023-03-19T04:35:58;21.90;;;12.10;;
23121;SDS011;11730;51.248;22.534;2023-03-19T04:38:26;20.38;;;10.30;;
23121;SDS011;11730;51.248;22.534;2023-03-19T04:40:53;21.52;;;11.43;;
23121;SDS011;11730;51.248;22.534;2023-03-19T04:43:21;21.65;;;11.05;;
23121;SDS011;11730;51.248;22.534;2023-03-19T04:45:49;19.73;;;10.57;;
23121;SDS011;11730;51.248;22.534;2023-03-19T04:48:17;21.45;;;10.43;;
23121;SDS011;11730;51.248;22.534;2023-03-19T04:50:44;23.80;;;11.32;;
23121;SDS011;11730;51.248;22.534;2023-03-19T04:53:12;18.65;;;10.68;;
23121;SDS011;11730;51.248;22.534;2023-03-19T04:55:40;19.80;;;10.80;;
23121;SDS011;11730;51.248;22.534;2023-03-19T04:58:07;16.08;;;10.00;;
23121;SDS011;11730;51.248;22.534;2023-03-19T05:00:35;18.90;;;9.60;;
23121;SDS011;11730;51.248;22.534;2023-03-19T05:03:02;19.33;;;10.48;;
23121;SDS011;11730;51.248;22.534;2023-03-19T05:05:29;18.05;;;9.95;;
23121;SDS011;11730;51.248;22.534;2023-03-19T05:07:57;18.30;;;10.23;;
23121;SDS011;11730;51.248;22.534;2023-03-19T05:10:24;23.10;;;10.73;;
23121;SDS011;11730;51.248;22.534;2023-03-19T05:12:51;18.60;;;9.48;;
23121;SDS011;11730;51.248;22.534;2023-03-19T05:15:19;16.67;;;9.77;;
23121;SDS011;11730;51.248;22.534;2023-03-19T05:17:46;16.70;;;8.60;;
23121;SDS011;11730;51.248;22.534;2023-03-19T05:20:13;18.25;;;9.50;;
23121;SDS011;11730;51.248;22.534;2023-03-19T05:22:41;23.63;;;10.80;;
23121;SDS011;11730;51.248;22.534;2023-03-19T05:25:08;16.33;;;9.35;;
23121;SDS011;11730;51.248;22.534;2023-03-19T05:27:35;18.80;;;9.70;;
23121;SDS011;11730;51.248;22.534;2023-03-19T05:30:03;14.55;;;9.15;;
23121;SDS011;11730;51.248;22.534;2023-03-19T05:32:31;13.10;;;6.93;;
23121;SDS011;11730;51.248;22.534;2023-03-19T05:34:59;10.50;;;6.03;;
23121;SDS011;11730;51.248;22.534;2023-03-19T05:37:26;9.65;;;4.90;;
23121;SDS011;11730;51.248;22.534;2023-03-19T05:39:53;15.95;;;6.50;;
23121;SDS011;11730;51.248;22.534;2023-03-19T05:42:21;15.95;;;9.30;;
23121;SDS011;11730;51.248;22.534;2023-03-19T05:44:48;14.40;;;8.98;;
23121;SDS011;11730;51.248;22.534;2023-03-19T05:47:15;14.88;;;9.27;;
23121;SDS011;11730;51.248;22.534;2023-03-19T05:49:43;18.95;;;10.32;;
23121;SDS011;11730;51.248;22.534;2023-03-19T05:52:10;19.75;;;10.73;;
23121;SDS011;11730;51.248;22.534;2023-03-19T05:54:37;19.23;;;10.02;;
23121;SDS011;11730;51.248;22.534;2023-03-19T05:57:05;19.35;;;9.70;;
23121;SDS011;11730;51.248;22.534;2023-03-19T05:59:32;13.27;;;7.78;;
23121;SDS011;11730;51.248;22.534;2023-03-19T06:02:00;17.90;;;8.80;;
23121;SDS011;11730;51.248;22.534;2023-03-19T06:04:27;19.35;;;10.23;;
23121;SDS011;11730;51.248;22.534;2023-03-19T06:06:54;17.58;;;9.25;;
23121;SDS011;11730;51.248;22.534;2023-03-19T06:09:22;14.25;;;8.25;;
23121;SDS011;11730;51.248;22.534;2023-03-19T06:11:49;18.77;;;9.27;;
23121;SDS011;11730;51.248;22.534;2023-03-19T06:14:17;17.73;;;9.52;;
23121;SDS011;11730;51.248;22.534;2023-03-19T06:16:44;16.13;;;9.20;;
23121;SDS011;11730;51.248;22.534;2023-03-19T06:19:11;15.23;;;8.68;;
23121;SDS011;11730;51.248;22.534;2023-03-19T06:21:39;16.45;;;8.90;;
23121;SDS011;11730;51.248;22.534;2023-03-19T06:24:06;19.40;;;9.70;;
23121;SDS011;11730;51.248;22.534;2023-03-19T06:26:34;18.10;;;8.20;;
23121;SDS011;11730;51.248;22.534;2023-03-19T06:29:02;15.65;;;8.05;;
23121;SDS011;11730;51.248;22.534;2023-03-19T06:31:30;15.30;;;8.43;;
23121;SDS011;11730;51.248;22.534;2023-03-19T06:33:57;15.07;;;8.48;;
23121;SDS011;11730;51.248;22.534;2023-03-19T06:36:24;14.48;;;8.57;;
23121;SDS011;11730;51.248;22.534;2023-03-19T06:38:52;15.75;;;8.52;;
23121;SDS011;11730;51.248;22.534;2023-03-19T06:41:19;16.15;;;9.23;;
23121;SDS011;11730;51.248;22.534;2023-03-19T06:43:47;14.52;;;8.55;;
23121;SDS011;11730;51.248;22.534;2023-03-19T06:46:14;13.48;;;6.95;;
23121;SDS011;11730;51.248;22.534;2023-03-19T06:48:41;13.80;;;8.10;;
23121;SDS011;11730;51.248;22.534;2023-03-19T06:51:09;12.60;;;8.25;;
23121;SDS011;11730;51.248;22.534;2023-03-19T06:53:36;15.30;;;8.68;;
23121;SDS011;11730;51.248;22.534;2023-03-19T06:56:04;14.50;;;8.55;;
23121;SDS011;11730;51.248;22.534;2023-03-19T06:58:31;13.23;;;8.30;;
23121;SDS011;11730;51.248;22.534;2023-03-19T07:00:58;14.15;;;7.60;;
23121;SDS011;11730;51.248;22.534;2023-03-19T07:03:25;15.63;;;7.63;;
23121;SDS011;11730;51.248;22.534;2023-03-19T07:05:53;12.65;;;7.55;;
23121;SDS011;11730;51.248;22.534;2023-03-19T07:08:20;15.43;;;7.90;;
23121;SDS011;11730;51.248;22.534;2023-03-19T07:10:47;15.00;;;8.20;;
23121;SDS011;11730;51.248;22.534;2023-03-19T07:13:14;12.48;;;8.15;;
23121;SDS011;11730;51.248;22.534;2023-03-19T07:15:41;11.75;;;7.88;;
23121;SDS011;11730;51.248;22.534;2023-03-19T07:18:08;14.40;;;8.57;;
23121;SDS011;11730;51.248;22.534;2023-03-19T07:20:35;14.93;;;8.45;;
23121;SDS011;11730;51.248;22.534;2023-03-19T07:23:02;13.18;;;8.32;;
23121;SDS011;11730;51.248;22.534;2023-03-19T07:25:29;13.40;;;8.65;;
23121;SDS011;11730;51.248;22.534;2023-03-19T07:27:56;18.10;;;9.07;;
23121;SDS011;11730;51.248;22.534;2023-03-19T07:30:23;14.80;;;8.18;;
23121;SDS011;11730;51.248;22.534;2023-03-19T07:32:50;14.65;;;9.35;;
23121;SDS011;11730;51.248;22.534;2023-03-19T07:35:17;13.82;;;8.45;;
23121;SDS011;11730;51.248;22.534;2023-03-19T07:37:44;15.93;;;9.20;;
23121;SDS011;11730;51.248;22.534;2023-03-19T07:40:12;13.98;;;8.45;;
23121;SDS011;11730;51.248;22.534;2023-03-19T07:42:39;15.68;;;8.70;;
23121;SDS011;11730;51.248;22.534;2023-03-19T07:45:09;14.63;;;8.40;;
23121;SDS011;11730;51.248;22.534;2023-03-19T07:47:36;14.07;;;7.97;;
23121;SDS011;11730;51.248;22.534;2023-03-19T07:50:05;14.13;;;8.85;;
23121;SDS011;11730;51.248;22.534;2023-03-19T07:52:32;12.95;;;7.93;;
23121;SDS011;11730;51.248;22.534;2023-03-19T07:55:00;15.20;;;8.13;;
23121;SDS011;11730;51.248;22.534;2023-03-19T07:57:26;13.02;;;8.27;;
23121;SDS011;11730;51.248;22.534;2023-03-19T07:59:54;12.20;;;7.82;;
23121;SDS011;11730;51.248;22.534;2023-03-19T08:02:21;15.45;;;8.77;;
23121;SDS011;11730;51.248;22.534;2023-03-19T08:04:49;14.52;;;8.40;;
23121;SDS011;11730;51.248;22.534;2023-03-19T08:07:16;17.00;;;10.05;;
23121;SDS011;11730;51.248;22.534;2023-03-19T08:09:43;14.38;;;8.82;;
23121;SDS011;11730;51.248;22.534;2023-03-19T08:12:10;13.75;;;8.60;;
23121;SDS011;11730;51.248;22.534;2023-03-19T08:14:38;13.85;;;8.57;;
23121;SDS011;11730;51.248;22.534;2023-03-19T08:17:05;12.57;;;8.40;;
23121;SDS011;11730;51.248;22.534;2023-03-19T08:19:33;14.52;;;8.35;;
23121;SDS011;11730;51.248;22.534;2023-03-19T08:22:00;12.45;;;7.93;;
23121;SDS011;11730;51.248;22.534;2023-03-19T08:24:27;18.40;;;8.13;;
23121;SDS011;11730;51.248;22.534;2023-03-19T08:26:54;13.18;;;8.13;;
23121;SDS011;11730;51.248;22.534;2023-03-19T08:29:22;13.60;;;7.82;;
23121;SDS011;11730;51.248;22.534;2023-03-19T08:31:52;14.10;;;8.25;;
23121;SDS011;11730;51.248;22.534;2023-03-19T08:34:19;12.15;;;8.07;;
23121;SDS011;11730;51.248;22.534;2023-03-19T08:36:47;12.85;;;8.02;;
23121;SDS011;11730;51.248;22.534;2023-03-19T08:39:14;14.85;;;8.75;;
23121;SDS011;11730;51.248;22.534;2023-03-19T08:41:41;16.10;;;8.10;;
23121;SDS011;11730;51.248;22.534;2023-03-19T08:44:08;13.13;;;8.10;;
23121;SDS011;11730;51.248;22.534;2023-03-19T08:46:35;13.00;;;8.50;;
23121;SDS011;11730;51.248;22.534;2023-03-19T08:49:03;11.75;;;8.23;;
23121;SDS011;11730;51.248;22.534;2023-03-19T08:51:30;12.68;;;8.48;;
23121;SDS011;11730;51.248;22.534;2023-03-19T08:53:58;12.88;;;8.45;;
23121;SDS011;11730;51.248;22.534;2023-03-19T08:56:25;17.88;;;9.00;;
23121;SDS011;11730;51.248;22.534;2023-03-19T08:58:54;13.27;;;8.32;;
23121;SDS011;11730;51.248;22.534;2023-03-19T09:01:22;15.05;;;9.25;;
23121;SDS011;11730;51.248;22.534;2023-03-19T09:03:49;15.93;;;8.38;;
23121;SDS011;11730;51.248;22.534;2023-03-19T09:06:16;13.20;;;8.32;;
23121;SDS011;11730;51.248;22.534;2023-03-19T09:08:43;15.30;;;9.23;;
23121;SDS011;11730;51.248;22.534;2023-03-19T09:11:11;14.38;;;9.05;;
23121;SDS011;11730;51.248;22.534;2023-03-19T09:13:39;15.20;;;8.93;;
23121;SDS011;11730;51.248;22.534;2023-03-19T09:16:07;14.50;;;7.82;;
23121;SDS011;11730;51.248;22.534;2023-03-19T09:18:34;17.08;;;9.18;;
23121;SDS011;11730;51.248;22.534;2023-03-19T09:21:02;13.48;;;8.82;;
23121;SDS011;11730;51.248;22.534;2023-03-19T09:23:29;14.65;;;9.10;;
23121;SDS011;11730;51.248;22.534;2023-03-19T09:25:56;15.38;;;9.20;;
23121;SDS011;11730;51.248;22.534;2023-03-19T09:28:23;14.70;;;9.80;;
23121;SDS011;11730;51.248;22.534;2023-03-19T09:30:51;14.35;;;8.82;;
23121;SDS011;11730;51.248;22.534;2023-03-19T09:33:18;15.48;;;9.38;;
23121;SDS011;11730;51.248;22.534;2023-03-19T09:35:50;13.40;;;8.98;;
23121;SDS011;11730;51.248;22.534;2023-03-19T09:38:18;44.67;;;33.00;;
23121;SDS011;11730;51.248;22.534;2023-03-19T09:40:47;16.35;;;9.05;;
23121;SDS011;11730;51.248;22.534;2023-03-19T09:46:16;14.82;;;9.30;;
23121;SDS011;11730;51.248;22.534;2023-03-19T09:48:55;16.20;;;8.68;;
23121;SDS011;11730;51.248;22.534;2023-03-19T09:51:30;14.95;;;9.57;;
23121;SDS011;11730;51.248;22.534;2023-03-19T09:54:21;13.48;;;8.65;;
23121;SDS011;11730;51.248;22.534;2023-03-19T09:56:50;16.67;;;9.75;;
23121;SDS011;11730;51.248;22.534;2023-03-19T09:59:17;13.70;;;8.32;;
23121;SDS011;11730;51.248;22.534;2023-03-19T10:01:49;14.15;;;9.50;;
23121;SDS011;11730;51.248;22.534;2023-03-19T10:04:38;15.80;;;9.13;;
23121;SDS011;11730;51.248;22.534;2023-03-19T10:07:18;15.75;;;9.10;;
23121;SDS011;11730;51.248;22.534;2023-03-19T10:12:57;15.52;;;9.25;;
23121;SDS011;11730;51.248;22.534;2023-03-19T10:15:20;14.35;;;9.00;;
23121;SDS011;11730;51.248;22.534;2023-03-19T10:20:35;13.38;;;8.85;;
23121;SDS011;11730;51.248;22.534;2023-03-19T10:23:22;14.38;;;9.52;;
23121;SDS011;11730;51.248;22.534;2023-03-19T10:26:12;12.88;;;9.20;;
23121;SDS011;11730;51.248;22.534;2023-03-19T10:28:49;15.48;;;9.30;;
23121;SDS011;11730;51.248;22.534;2023-03-19T10:39:26;16.48;;;10.15;;
23121;SDS011;11730;51.248;22.534;2023-03-19T10:44:27;14.60;;;9.45;;
23121;SDS011;11730;51.248;22.534;2023-03-19T10:46:58;20.33;;;10.95;;
23121;SDS011;11730;51.248;22.534;2023-03-19T10:49:34;14.63;;;10.35;;
23121;SDS011;11730;51.248;22.534;2023-03-19T10:52:02;16.45;;;10.50;;
23121;SDS011;11730;51.248;22.534;2023-03-19T10:54:29;15.93;;;10.38;;
23121;SDS011;11730;51.248;22.534;2023-03-19T10:56:57;15.02;;;10.20;;
23121;SDS011;11730;51.248;22.534;2023-03-19T11:01:57;16.67;;;9.10;;
23121;SDS011;11730;51.248;22.534;2023-03-19T11:04:27;15.50;;;10.00;;
23121;SDS011;11730;51.248;22.534;2023-03-19T11:06:55;12.32;;;9.45;;
23121;SDS011;11730;51.248;22.534;2023-03-19T11:09:36;13.60;;;10.23;;
23121;SDS011;11730;51.248;22.534;2023-03-19T11:14:46;16.83;;;10.88;;
23121;SDS011;11730;51.248;22.534;2023-03-19T11:17:21;18.50;;;13.77;;
23121;SDS011;11730;51.248;22.534;2023-03-19T11:22:53;14.73;;;10.10;;
23121;SDS011;11730;51.248;22.534;2023-03-19T11:27:57;13.98;;;9.30;;
23121;SDS011;11730;51.248;22.534;2023-03-19T11:30:37;17.48;;;10.65;;
23121;SDS011;11730;51.248;22.534;2023-03-19T11:33:30;14.38;;;10.02;;
23121;SDS011;11730;51.248;22.534;2023-03-19T11:36:22;12.10;;;9.32;;
23121;SDS011;11730;51.248;22.534;2023-03-19T11:47:44;17.10;;;11.75;;
23121;SDS011;11730;51.248;22.534;2023-03-19T11:53:23;19.43;;;10.87;;
23121;SDS011;11730;51.248;22.534;2023-03-19T11:56:04;15.20;;;10.30;;
23121;SDS011;11730;51.248;22.534;2023-03-19T12:04:25;17.70;;;9.93;;
23121;SDS011;11730;51.248;22.534;2023-03-19T12:07:05;15.75;;;10.10;;
23121;SDS011;11730;51.248;22.534;2023-03-19T12:12:06;18.00;;;10.68;;
23121;SDS011;11730;51.248;22.534;2023-03-19T12:20:41;15.40;;;10.32;;
23121;SDS011;11730;51.248;22.534;2023-03-19T12:26:54;18.40;;;10.73;;
23121;SDS011;11730;51.248;22.534;2023-03-19T12:31:53;18.13;;;11.50;;
23121;SDS011;11730;51.248;22.534;2023-03-19T12:34:49;15.52;;;10.82;;
23121;SDS011;11730;51.248;22.534;2023-03-19T12:37:34;20.92;;;10.90;;
23121;SDS011;11730;51.248;22.534;2023-03-19T12:42:40;15.10;;;10.82;;
23121;SDS011;11730;51.248;22.534;2023-03-19T12:45:29;17.05;;;11.23;;
23121;SDS011;11730;51.248;22.534;2023-03-19T12:48:32;20.27;;;10.15;;
23121;SDS011;11730;51.248;22.534;2023-03-19T12:50:55;16.05;;;10.25;;
23121;SDS011;11730;51.248;22.534;2023-03-19T12:55:59;17.48;;;10.55;;
23121;SDS011;11730;51.248;22.534;2023-03-19T12:58:44;23.50;;;12.35;;
23121;SDS011;11730;51.248;22.534;2023-03-19T13:01:30;18.20;;;11.32;;
23121;SDS011;11730;51.248;22.534;2023-03-19T13:06:33;16.58;;;10.27;;
23121;SDS011;11730;51.248;22.534;2023-03-19T13:12:09;16.40;;;9.60;;
23121;SDS011;11730;51.248;22.534;2023-03-19T13:23:11;21.02;;;9.95;;
23121;SDS011;11730;51.248;22.534;2023-03-19T13:25:45;19.75;;;9.48;;
23121;SDS011;11730;51.248;22.534;2023-03-19T13:28:27;19.45;;;10.20;;
23121;SDS011;11730;51.248;22.534;2023-03-19T13:33:30;19.92;;;11.30;;
23121;SDS011;11730;51.248;22.534;2023-03-19T13:36:00;17.88;;;10.70;;
23121;SDS011;11730;51.248;22.534;2023-03-19T13:38:37;16.35;;;10.27;;
23121;SDS011;11730;51.248;22.534;2023-03-19T13:52:48;17.23;;;10.52;;
23121;SDS011;11730;51.248;22.534;2023-03-19T14:05:56;18.25;;;11.20;;
23121;SDS011;11730;51.248;22.534;2023-03-19T14:08:29;17.35;;;9.90;;
23121;SDS011;11730;51.248;22.534;2023-03-19T14:11:07;16.48;;;10.57;;
23121;SDS011;11730;51.248;22.534;2023-03-19T14:13:41;18.85;;;9.55;;
23121;SDS011;11730;51.248;22.534;2023-03-19T14:16:17;19.50;;;10.73;;
23121;SDS011;11730;51.248;22.534;2023-03-19T14:18:50;19.25;;;10.30;;
23121;SDS011;11730;51.248;22.534;2023-03-19T14:21:31;18.13;;;9.98;;
23121;SDS011;11730;51.248;22.534;2023-03-19T14:24:46;14.90;;;9.25;;
23121;SDS011;11730;51.248;22.534;2023-03-19T14:27:30;17.67;;;10.55;;
23121;SDS011;11730;51.248;22.534;2023-03-19T14:30:06;19.05;;;9.85;;
23121;SDS011;11730;51.248;22.534;2023-03-19T14:32:40;17.50;;;10.10;;
23121;SDS011;11730;51.248;22.534;2023-03-19T14:35:12;17.55;;;10.02;;
23121;SDS011;11730;51.248;22.534;2023-03-19T14:42:55;17.63;;;9.65;;
23121;SDS011;11730;51.248;22.534;2023-03-19T14:45:35;13.77;;;9.13;;
23121;SDS011;11730;51.248;22.534;2023-03-19T14:48:14;14.65;;;9.23;;
23121;SDS011;11730;51.248;22.534;2023-03-19T14:51:01;13.07;;;9.02;;
23121;SDS011;11730;51.248;22.534;2023-03-19T14:53:55;15.77;;;8.93;;
23121;SDS011;11730;51.248;22.534;2023-03-19T14:56:30;14.25;;;8.68;;
23121;SDS011;11730;51.248;22.534;2023-03-19T14:58:59;14.43;;;8.83;;
23121;SDS011;11730;51.248;22.534;2023-03-19T15:01:30;22.08;;;8.93;;
23121;SDS011;11730;51.248;22.534;2023-03-19T15:03:59;15.48;;;8.75;;
23121;SDS011;11730;51.248;22.534;2023-03-19T15:06:34;13.02;;;8.45;;
23121;SDS011;11730;51.248;22.534;2023-03-19T15:17:24;17.75;;;9.60;;
23121;SDS011;11730;51.248;22.534;2023-03-19T15:19:54;18.02;;;9.68;;
23121;SDS011;11730;51.248;22.534;2023-03-19T15:22:31;15.48;;;9.18;;
23121;SDS011;11730;51.248;22.534;2023-03-19T15:25:06;13.38;;;8.63;;
23121;SDS011;11730;51.248;22.534;2023-03-19T15:27:35;15.30;;;8.88;;
23121;SDS011;11730;51.248;22.534;2023-03-19T15:30:03;18.80;;;10.07;;
23121;SDS011;11730;51.248;22.534;2023-03-19T15:32:44;16.90;;;9.95;;
23121;SDS011;11730;51.248;22.534;2023-03-19T15:35:32;16.77;;;9.43;;
23121;SDS011;11730;51.248;22.534;2023-03-19T15:38:02;15.60;;;8.98;;
23121;SDS011;11730;51.248;22.534;2023-03-19T15:40:34;17.05;;;10.05;;
23121;SDS011;11730;51.248;22.534;2023-03-19T15:43:03;17.88;;;10.05;;
23121;SDS011;11730;51.248;22.534;2023-03-19T15:45:31;15.35;;;9.55;;
23121;SDS011;11730;51.248;22.534;2023-03-19T15:48:03;17.33;;;9.60;;
23121;SDS011;11730;51.248;22.534;2023-03-19T15:50:43;25.73;;;10.15;;
23121;SDS011;11730;51.248;22.534;2023-03-19T15:53:17;16.73;;;9.00;;
23121;SDS011;11730;51.248;22.534;2023-03-19T15:55:48;19.55;;;10.02;;
23121;SDS011;11730;51.248;22.534;2023-03-19T15:58:18;24.20;;;9.80;;
23121;SDS011;11730;51.248;22.534;2023-03-19T16:00:52;15.85;;;8.98;;
23121;SDS011;11730;51.248;22.534;2023-03-19T16:03:21;15.55;;;8.82;;
23121;SDS011;11730;51.248;22.534;2023-03-19T16:08:53;15.57;;;9.05;;
23121;SDS011;11730;51.248;22.534;2023-03-19T16:11:29;17.52;;;10.40;;
23121;SDS011;11730;51.248;22.534;2023-03-19T16:16:58;25.30;;;11.90;;
23121;SDS011;11730;51.248;22.534;2023-03-19T16:21:54;20.02;;;11.77;;
23121;SDS011;11730;51.248;22.534;2023-03-19T16:24:34;20.35;;;10.48;;
23121;SDS011;11730;51.248;22.534;2023-03-19T16:27:10;16.90;;;10.00;;
23121;SDS011;11730;51.248;22.534;2023-03-19T16:29:55;18.48;;;9.88;;
23121;SDS011;11730;51.248;22.534;2023-03-19T16:32:24;19.02;;;10.02;;
23121;SDS011;11730;51.248;22.534;2023-03-19T16:34:53;18.08;;;9.15;;
23121;SDS011;11730;51.248;22.534;2023-03-19T16:37:39;19.40;;;10.15;;
23121;SDS011;11730;51.248;22.534;2023-03-19T16:45:31;26.92;;;12.25;;
23121;SDS011;11730;51.248;22.534;2023-03-19T16:48:01;28.40;;;13.05;;
23121;SDS011;11730;51.248;22.534;2023-03-19T16:50:30;28.15;;;13.50;;
23121;SDS011;11730;51.248;22.534;2023-03-19T16:52:58;22.42;;;13.48;;